x

Mid Superior 60nm North Northeast Hancock, Mi (45001) Wave Buoy

1:50pm - Tue 30th Sep 2014 All times are CDT. -5 hours from GMT.

  • Sig Wave height 1.3ft
  • Swell Direction
  • Peak Period 4s
  • Average Period 3s
  • Wind
    13mph
  • Sea Temp 44°f
  • Air Temp 43°f
  • Sea Pressure 1020.4mb
  • Mid Superior 60nm North Northeast Hancock, Mi
  • Mid Superior 60nm North Northeast Hancock, Mi

More Historic Weather Station data

Upgrade to MSW Pro to gain access to the past 30 days of data for over 8000 Wavebouys and Weather Stations around the globe.

Join Pro

Comparision Forecast

View Surf forecast
   
Tue 09/30 1:50pm 1.3ft 4s 3s 13
mph
1020.4mb 44f 43f
12:50pm 1.6ft 4s 4s 11 13 mph 1021.1mb 44f 43f
11:50am 1.6ft 4s 3s 9
mph
1021.9mb 44f 43f
10:50am 1.6ft 4s 4s 9 11 mph 1022.3mb 44f 43f
9:50am 1.6ft 4s 3s 11 13 mph 1022.3mb 44f 43f
8:50am 1.6ft 4s 3s 11 13 mph 1022.4mb 44f 43f
7:50am 1.6ft 4s 4s 11 13 mph 1022.2mb 44f 43f
6:50am 1.6ft 4s 3s 11 13 mph 1022.3mb 44f 43f
5:50am 2ft 4s 4s 13 16 mph 1021.9mb 44f 43f
4:50am 2ft 4s 4s 11 13 mph 1021.8mb 44f 43f
3:50am 2ft 5s 4s 13 16 mph 1022.1mb 44f 43f
2:50am 2.5ft 5s 4s 11 13 mph 1022.4mb 44f 43f
1:50am 2.5ft 5s 4s 13 16 mph 1022.2mb 44f 43f
12:50am 3ft 5s 4s 11 13 mph 1022.2mb 44f 43f
Mon 09/29 11:50pm 3.5ft 5s 4s 13 16 mph 1022.7mb 44f 43f
10:50pm 3.5ft 5s 4s 16 20 mph 1023.1mb 44f 43f
9:50pm 3.5ft 6s 4s 16 18 mph 1023.3mb 44f 43f
8:50pm 3.5ft 6s 4s 18 20 mph 1023.3mb 44f 43f
7:50pm 4ft 6s 4s 18 22 mph 1023mb 44f 43f
6:50pm 4.5ft 6s 4s 18 20 mph 1022.8mb 44f 42f
5:50pm 4.5ft 6s 5s 20 22 mph 1022.7mb 44f 42f
4:50pm 4.5ft 6s 5s 18 22 mph 1022.7mb 44f 42f
3:50pm 5.5ft 6s 5s 20 25 mph 1022.5mb 44f 41f
2:50pm 5.5ft 6s 5s 22 29 mph 1022.5mb 44f 41f
1:50pm 6ft 7s 5s 22 27 mph 1022.7mb 44f 41f
12:50pm 6.5ft 7s 5s 25 29 mph 1022.6mb 44f 41f
11:50am 7.5ft 7s 5s 27 31 mph 1022.4mb 44f 40f
10:50am 8ft 7s 6s 27 34 mph 1022.6mb 44f 40f
9:50am 7.5ft 7s 5s 27 31 mph 1022.5mb 44f 40f
8:50am 7ft 7s 5s 27 34 mph 1022.3mb 44f 39f
7:50am 8ft 7s 5s 27 31 mph 1021.8mb 44f 40f
6:50am 8ft 7s 6s 25 29 mph 1021.3mb 44f 40f
5:50am 7ft 7s 5s 27 31 mph 1020.9mb 44f 40f
4:50am 8ft 7s 6s 27 31 mph 1020.5mb 44f 40f
3:50am 7.5ft 7s 6s 27 31 mph 1020.2mb 44f 40f
2:50am 8ft 7s 6s 29 36 mph 1019.8mb 44f 41f
1:50am 8ft 7s 6s 29 36 mph 1019.7mb 44f 42f
12:50am 7.5ft 7s 5s 29 36 mph 1019.5mb 44f 42f
Sun 09/28 11:50pm 7ft 7s 5s 29 34 mph 1019.6mb 44f 42f
10:50pm 7ft 6s 5s 27 34 mph 1019.5mb 45f 43f
9:50pm 6ft 6s 5s 27 31 mph 1019.6mb 45f 45f
8:50pm 5.5ft 6s 5s 29 34 mph 1018.7mb 45f 46f
7:50pm 4.5ft 5s 4s 22 27 mph 1018.6mb 45f 46f
6:50pm 3.5ft 5s 4s 25 29 mph 1017.8mb 46f 47f
5:50pm 1.6ft 3s 3s 22 27 mph 1017.8mb 46f 48f
4:50pm 0.7ft  -  3s 13 16 mph 1018.1mb 46f 49f
3:50pm 0.7ft  -  3s 11 13 mph 1018.4mb 46f 49f
2:50pm 0.7ft  -  3s 13 16 mph 1018.6mb 46f 49f
1:50pm 1ft 3s 3s 11 13 mph 1018.6mb 47f 52f
12:50pm 1ft 3s 3s 2
mph
1018.8mb 47f 50f
11:50am 0.7ft  -  3s 4
mph
1019mb 46f 50f
10:50am 1ft 3s 3s 9
mph
1018.6mb 46f 50f
9:50am 1ft 3s 3s 11 13 mph 1018.4mb 46f 50f
8:50am 1.3ft 3s 3s 11
mph
1018.5mb 46f 50f
7:50am 1.3ft 3s 3s 13 16 mph 1018.4mb 46f 50f
6:50am 1ft 3s 3s 11 13 mph 1018.4mb 46f 50f
5:50am 1ft 3s 3s 13
mph
1018.4mb 46f 50f
4:50am 0.7ft  -  3s 11 13 mph 1018.6mb 46f 50f
3:50am 1ft 3s 3s 13 16 mph 1018.7mb 46f 51f
2:50am 0.7ft  -  3s 13 16 mph 1018.8mb 46f 52f
1:50am 0.7ft  -  3s 11
mph
1018.9mb 46f 51f
12:50am 0.7ft  -  3s 9
mph
1018.7mb 46f 50f
Sat 09/27 11:50pm 0.7ft  -  3s 9
mph
1018.6mb 46f 53f
10:50pm 0.7ft  -  3s 11 13 mph 1018.5mb 46f 54f
9:50pm 0.7ft  -  3s 11
mph
1018.9mb 46f 52f
8:50pm 0.7ft  -  3s 11
mph
1018.8mb 46f 52f
7:50pm 0.7ft  -  3s 11 13 mph 1018.9mb 46f 52f
6:50pm 1ft 3s 3s 13
mph
1018.7mb 46f 53f
5:50pm 0.7ft  -  3s 11 13 mph 1018.8mb 46f 53f
4:50pm 0.7ft  -  3s 9
mph
1019.4mb 46f 51f
3:50pm 0.7ft  -  3s 4 7 mph 1020.1mb 46f 51f
2:50pm 0.7ft  -  3s 9
mph
1020.4mb 46f 51f
1:50pm 0.7ft  -  3s 7 9 mph 1021.2mb 46f 50f
12:50pm 0.7ft  -  3s 9 11 mph 1021.7mb 46f 50f
11:50am 0.7ft  -  3s 9
mph
1021.8mb 45f 50f
10:50am 0.7ft  -  3s 11
mph
1021.9mb 45f 50f
9:50am 0.7ft  -  3s 9 11 mph 1022.4mb 45f 49f
8:50am 0.7ft  -  3s 7 9 mph 1022.9mb 45f 49f
7:50am 0.7ft  -  3s 9
mph
1022.8mb 45f 49f
6:50am 0.7ft  -  3s 9
mph
1022.6mb 45f 49f
5:50am 0.7ft  -  3s 7 9 mph 1022.5mb 45f 48f
4:50am 0.7ft  -  3s 7
mph
1022.6mb 45f 49f
3:50am 1ft 3s 3s 7
mph
1022.5mb 45f 48f
2:50am 1ft 3s 3s 9
mph
1022.3mb 45f 50f
1:50am 1ft 3s 3s 9 11 mph 1022.3mb 45f 50f
12:50am 0.7ft  -  2s 11
mph
1022.3mb 45f 50f
Fri 09/26 11:50pm 0.3ft  -  2s 11
mph
1022.4mb 45f 49f
10:50pm 0.3ft  -  3s 9 11 mph 1022.8mb 45f 49f
9:50pm 0.3ft  -  3s 11 13 mph 1023.2mb 46f 51f
8:50pm 0.3ft  -  3s 9
mph
1023.4mb 46f 49f